sensor_id;sensor_type;location;lat;lon;timestamp;temperature;humidity
34776;DHT22;20989;52.566;13.346;2023-04-01T00:00:20;22.00;47.20
34776;DHT22;20989;52.566;13.346;2023-04-01T00:03:22;22.00;47.30
34776;DHT22;20989;52.566;13.346;2023-04-01T00:06:23;22.00;47.10
34776;DHT22;20989;52.566;13.346;2023-04-01T00:09:24;22.00;47.30
34776;DHT22;20989;52.566;13.346;2023-04-01T00:12:25;21.90;47.10
34776;DHT22;20989;52.566;13.346;2023-04-01T00:15:26;21.90;47.20
34776;DHT22;20989;52.566;13.346;2023-04-01T00:18:27;22.00;47.30
34776;DHT22;20989;52.566;13.346;2023-04-01T00:21:27;22.00;47.30
34776;DHT22;20989;52.566;13.346;2023-04-01T00:24:28;22.00;47.20
34776;DHT22;20989;52.566;13.346;2023-04-01T00:27:29;21.90;47.20
34776;DHT22;20989;52.566;13.346;2023-04-01T00:30:29;21.90;47.20
34776;DHT22;20989;52.566;13.346;2023-04-01T00:33:30;21.90;47.20
34776;DHT22;20989;52.566;13.346;2023-04-01T00:36:31;21.90;47.20
34776;DHT22;20989;52.566;13.346;2023-04-01T00:39:33;21.90;47.20
34776;DHT22;20989;52.566;13.346;2023-04-01T00:42:33;21.90;47.10
34776;DHT22;20989;52.566;13.346;2023-04-01T00:45:36;21.90;47.10
34776;DHT22;20989;52.566;13.346;2023-04-01T00:48:48;21.90;47.10
34776;DHT22;20989;52.566;13.346;2023-04-01T00:51:53;21.90;47.20
34776;DHT22;20989;52.566;13.346;2023-04-01T00:54:57;21.90;47.10
34776;DHT22;20989;52.566;13.346;2023-04-01T00:58:06;21.90;47.20
34776;DHT22;20989;52.566;13.346;2023-04-01T01:01:09;21.90;47.20
34776;DHT22;20989;52.566;13.346;2023-04-01T01:04:30;21.90;47.20
34776;DHT22;20989;52.566;13.346;2023-04-01T01:07:45;21.90;47.20
34776;DHT22;20989;52.566;13.346;2023-04-01T01:10:49;21.90;47.20
34776;DHT22;20989;52.566;13.346;2023-04-01T01:14:01;21.90;47.10
34776;DHT22;20989;52.566;13.346;2023-04-01T01:24:10;21.90;47.20
34776;DHT22;20989;52.566;13.346;2023-04-01T01:27:16;21.90;47.20
34776;DHT22;20989;52.566;13.346;2023-04-01T01:30:30;21.90;47.20
34776;DHT22;20989;52.566;13.346;2023-04-01T01:37:14;21.90;47.20
34776;DHT22;20989;52.566;13.346;2023-04-01T01:40:16;21.90;47.20
34776;DHT22;20989;52.566;13.346;2023-04-01T01:43:21;21.90;47.20
34776;DHT22;20989;52.566;13.346;2023-04-01T01:46:24;21.90;47.10
34776;DHT22;20989;52.566;13.346;2023-04-01T01:49:27;21.90;47.20
34776;DHT22;20989;52.566;13.346;2023-04-01T01:52:30;21.90;47.10
34776;DHT22;20989;52.566;13.346;2023-04-01T01:55:39;21.90;47.10
34776;DHT22;20989;52.566;13.346;2023-04-01T01:58:46;21.90;47.20
34776;DHT22;20989;52.566;13.346;2023-04-01T02:01:52;21.90;47.10
34776;DHT22;20989;52.566;13.346;2023-04-01T02:04:54;21.90;47.20
34776;DHT22;20989;52.566;13.346;2023-04-01T02:08:04;21.90;47.20
34776;DHT22;20989;52.566;13.346;2023-04-01T02:11:09;21.90;47.20
34776;DHT22;20989;52.566;13.346;2023-04-01T02:14:11;21.90;47.10
34776;DHT22;20989;52.566;13.346;2023-04-01T02:17:22;21.80;47.10
34776;DHT22;20989;52.566;13.346;2023-04-01T02:20:24;21.80;47.10
34776;DHT22;20989;52.566;13.346;2023-04-01T02:23:26;21.90;47.20
34776;DHT22;20989;52.566;13.346;2023-04-01T02:26:29;21.80;47.10
34776;DHT22;20989;52.566;13.346;2023-04-01T02:29:30;21.80;47.10
34776;DHT22;20989;52.566;13.346;2023-04-01T02:32:31;21.80;47.10
34776;DHT22;20989;52.566;13.346;2023-04-01T02:35:35;21.90;47.20
34776;DHT22;20989;52.566;13.346;2023-04-01T02:38:37;21.90;47.20
34776;DHT22;20989;52.566;13.346;2023-04-01T02:41:42;21.90;47.00
34776;DHT22;20989;52.566;13.346;2023-04-01T02:44:43;21.80;47.10
34776;DHT22;20989;52.566;13.346;2023-04-01T02:47:44;21.80;47.10
34776;DHT22;20989;52.566;13.346;2023-04-01T02:50:45;21.80;47.10
34776;DHT22;20989;52.566;13.346;2023-04-01T02:53:45;21.80;47.10
34776;DHT22;20989;52.566;13.346;2023-04-01T02:56:46;21.90;47.20
34776;DHT22;20989;52.566;13.346;2023-04-01T02:59:47;21.80;47.10
34776;DHT22;20989;52.566;13.346;2023-04-01T03:02:48;21.80;47.00
34776;DHT22;20989;52.566;13.346;2023-04-01T03:05:49;21.80;47.10
34776;DHT22;20989;52.566;13.346;2023-04-01T03:08:50;21.80;47.10
34776;DHT22;20989;52.566;13.346;2023-04-01T03:11:51;21.80;47.10
34776;DHT22;20989;52.566;13.346;2023-04-01T03:14:51;21.80;47.10
34776;DHT22;20989;52.566;13.346;2023-04-01T03:17:52;21.80;47.10
34776;DHT22;20989;52.566;13.346;2023-04-01T03:20:53;21.80;47.10
34776;DHT22;20989;52.566;13.346;2023-04-01T03:23:53;21.80;47.20
34776;DHT22;20989;52.566;13.346;2023-04-01T03:26:54;21.80;47.10
34776;DHT22;20989;52.566;13.346;2023-04-01T03:29:55;21.80;47.10
34776;DHT22;20989;52.566;13.346;2023-04-01T03:32:55;21.80;47.00
34776;DHT22;20989;52.566;13.346;2023-04-01T03:35:56;21.80;47.20
34776;DHT22;20989;52.566;13.346;2023-04-01T03:38:57;21.80;47.10
34776;DHT22;20989;52.566;13.346;2023-04-01T03:41:57;21.80;47.10
34776;DHT22;20989;52.566;13.346;2023-04-01T03:44:59;21.80;47.10
34776;DHT22;20989;52.566;13.346;2023-04-01T03:47:59;21.80;47.00
34776;DHT22;20989;52.566;13.346;2023-04-01T03:51:00;21.80;47.10
34776;DHT22;20989;52.566;13.346;2023-04-01T03:54:01;21.80;47.20
34776;DHT22;20989;52.566;13.346;2023-04-01T03:57:01;21.80;47.10
34776;DHT22;20989;52.566;13.346;2023-04-01T04:00:02;21.70;47.10
34776;DHT22;20989;52.566;13.346;2023-04-01T04:03:03;21.80;47.10
34776;DHT22;20989;52.566;13.346;2023-04-01T04:06:04;21.80;47.00
34776;DHT22;20989;52.566;13.346;2023-04-01T04:09:04;21.80;47.00
34776;DHT22;20989;52.566;13.346;2023-04-01T04:12:06;21.70;46.90
34776;DHT22;20989;52.566;13.346;2023-04-01T04:15:08;21.80;47.10
34776;DHT22;20989;52.566;13.346;2023-04-01T04:18:08;21.70;47.00
34776;DHT22;20989;52.566;13.346;2023-04-01T04:21:14;21.70;47.20
34776;DHT22;20989;52.566;13.346;2023-04-01T04:24:15;21.70;47.00
34776;DHT22;20989;52.566;13.346;2023-04-01T04:27:15;21.70;47.10
34776;DHT22;20989;52.566;13.346;2023-04-01T04:30:16;21.70;47.00
34776;DHT22;20989;52.566;13.346;2023-04-01T04:33:17;21.80;47.10
34776;DHT22;20989;52.566;13.346;2023-04-01T04:36:19;21.70;47.00
34776;DHT22;20989;52.566;13.346;2023-04-01T04:39:19;21.70;47.00
34776;DHT22;20989;52.566;13.346;2023-04-01T04:42:20;21.80;47.10
34776;DHT22;20989;52.566;13.346;2023-04-01T04:45:21;21.70;47.00
34776;DHT22;20989;52.566;13.346;2023-04-01T04:48:21;21.70;47.10
34776;DHT22;20989;52.566;13.346;2023-04-01T04:51:22;21.70;47.10
34776;DHT22;20989;52.566;13.346;2023-04-01T04:54:23;21.70;47.00
34776;DHT22;20989;52.566;13.346;2023-04-01T04:57:24;21.70;47.10
34776;DHT22;20989;52.566;13.346;2023-04-01T05:00:36;21.70;47.00
34776;DHT22;20989;52.566;13.346;2023-04-01T05:03:38;21.70;47.00
34776;DHT22;20989;52.566;13.346;2023-04-01T05:06:38;21.70;47.10
34776;DHT22;20989;52.566;13.346;2023-04-01T05:09:39;21.70;47.20
34776;DHT22;20989;52.566;13.346;2023-04-01T05:12:40;21.70;47.20
34776;DHT22;20989;52.566;13.346;2023-04-01T05:15:41;21.70;47.00
34776;DHT22;20989;52.566;13.346;2023-04-01T05:18:42;21.70;47.20
34776;DHT22;20989;52.566;13.346;2023-04-01T05:21:42;21.70;47.10
34776;DHT22;20989;52.566;13.346;2023-04-01T05:24:43;21.70;47.10
34776;DHT22;20989;52.566;13.346;2023-04-01T05:27:44;21.70;47.10
34776;DHT22;20989;52.566;13.346;2023-04-01T05:30:45;21.70;47.10
34776;DHT22;20989;52.566;13.346;2023-04-01T05:33:45;21.70;47.10
34776;DHT22;20989;52.566;13.346;2023-04-01T05:36:46;21.70;47.10
34776;DHT22;20989;52.566;13.346;2023-04-01T05:39:47;21.70;47.00
34776;DHT22;20989;52.566;13.346;2023-04-01T05:42:47;21.70;47.10
34776;DHT22;20989;52.566;13.346;2023-04-01T05:45:48;21.70;47.10
34776;DHT22;20989;52.566;13.346;2023-04-01T05:48:49;21.70;47.10
34776;DHT22;20989;52.566;13.346;2023-04-01T05:51:50;21.70;47.20
34776;DHT22;20989;52.566;13.346;2023-04-01T05:54:51;21.70;47.10
34776;DHT22;20989;52.566;13.346;2023-04-01T05:57:52;21.70;47.10
34776;DHT22;20989;52.566;13.346;2023-04-01T06:01:00;21.70;47.10
34776;DHT22;20989;52.566;13.346;2023-04-01T06:04:01;21.70;47.20
34776;DHT22;20989;52.566;13.346;2023-04-01T06:07:10;21.70;47.10
34776;DHT22;20989;52.566;13.346;2023-04-01T06:10:18;21.70;47.00
34776;DHT22;20989;52.566;13.346;2023-04-01T06:17:26;21.70;47.10
34776;DHT22;20989;52.566;13.346;2023-04-01T06:34:47;21.70;47.80
34776;DHT22;20989;52.566;13.346;2023-04-01T06:50:58;21.60;47.10
34776;DHT22;20989;52.566;13.346;2023-04-01T06:54:19;21.70;47.30
34776;DHT22;20989;52.566;13.346;2023-04-01T06:58:16;21.60;47.10
34776;DHT22;20989;52.566;13.346;2023-04-01T07:01:03;21.70;47.20
34776;DHT22;20989;52.566;13.346;2023-04-01T07:04:05;21.60;47.10
34776;DHT22;20989;52.566;13.346;2023-04-01T07:07:31;21.60;47.20
34776;DHT22;20989;52.566;13.346;2023-04-01T07:10:56;21.60;47.20
34776;DHT22;20989;52.566;13.346;2023-04-01T07:14:06;21.60;47.20
34776;DHT22;20989;52.566;13.346;2023-04-01T07:17:16;21.60;47.10
34776;DHT22;20989;52.566;13.346;2023-04-01T07:20:26;21.60;47.10
34776;DHT22;20989;52.566;13.346;2023-04-01T07:23:39;21.60;47.20
34776;DHT22;20989;52.566;13.346;2023-04-01T07:26:43;21.60;47.10
34776;DHT22;20989;52.566;13.346;2023-04-01T07:29:43;21.60;47.20
34776;DHT22;20989;52.566;13.346;2023-04-01T07:32:51;21.60;47.10
34776;DHT22;20989;52.566;13.346;2023-04-01T07:36:05;21.70;47.20
34776;DHT22;20989;52.566;13.346;2023-04-01T07:53:11;21.60;47.10
34776;DHT22;20989;52.566;13.346;2023-04-01T07:56:25;21.60;47.10
34776;DHT22;20989;52.566;13.346;2023-04-01T08:05:59;21.60;47.10
34776;DHT22;20989;52.566;13.346;2023-04-01T08:09:26;21.60;47.10
34776;DHT22;20989;52.566;13.346;2023-04-01T08:12:38;21.60;47.20
34776;DHT22;20989;52.566;13.346;2023-04-01T08:15:54;21.60;47.30
34776;DHT22;20989;52.566;13.346;2023-04-01T08:29:04;21.70;47.10
34776;DHT22;20989;52.566;13.346;2023-04-01T08:32:15;21.60;47.10
34776;DHT22;20989;52.566;13.346;2023-04-01T08:36:02;21.60;46.80
34776;DHT22;20989;52.566;13.346;2023-04-01T08:39:34;21.60;46.70
34776;DHT22;20989;52.566;13.346;2023-04-01T08:46:52;21.70;46.90
34776;DHT22;20989;52.566;13.346;2023-04-01T08:50:09;21.60;46.90
34776;DHT22;20989;52.566;13.346;2023-04-01T09:23:25;21.70;47.00
34776;DHT22;20989;52.566;13.346;2023-04-01T09:36:55;21.70;46.80
34776;DHT22;20989;52.566;13.346;2023-04-01T09:40:21;21.70;47.00
34776;DHT22;20989;52.566;13.346;2023-04-01T10:01:45;21.80;46.80
34776;DHT22;20989;52.566;13.346;2023-04-01T10:11:31;21.60;46.10
34776;DHT22;20989;52.566;13.346;2023-04-01T10:28:17;21.90;47.20
34776;DHT22;20989;52.566;13.346;2023-04-01T10:34:56;22.00;47.70
34776;DHT22;20989;52.566;13.346;2023-04-01T10:41:44;22.10;47.70
34776;DHT22;20989;52.566;13.346;2023-04-01T10:51:18;22.10;48.50
34776;DHT22;20989;52.566;13.346;2023-04-01T11:28:27;22.30;48.40
34776;DHT22;20989;52.566;13.346;2023-04-01T11:31:43;22.30;48.40
34776;DHT22;20989;52.566;13.346;2023-04-01T11:41:47;22.40;47.90
34776;DHT22;20989;52.566;13.346;2023-04-01T12:09:19;22.10;48.00
34776;DHT22;20989;52.566;13.346;2023-04-01T12:15:58;22.10;48.00
34776;DHT22;20989;52.566;13.346;2023-04-01T12:25:57;22.00;47.90
34776;DHT22;20989;52.566;13.346;2023-04-01T12:40:02;22.20;47.70
34776;DHT22;20989;52.566;13.346;2023-04-01T12:46:19;22.10;47.60
34776;DHT22;20989;52.566;13.346;2023-04-01T12:49:45;22.10;47.80
34776;DHT22;20989;52.566;13.346;2023-04-01T12:53:06;22.10;47.80
34776;DHT22;20989;52.566;13.346;2023-04-01T13:00:57;22.00;47.80
34776;DHT22;20989;52.566;13.346;2023-04-01T13:19:24;22.10;47.80
34776;DHT22;20989;52.566;13.346;2023-04-01T13:22:41;22.10;47.70
34776;DHT22;20989;52.566;13.346;2023-04-01T13:26:00;22.00;47.90
34776;DHT22;20989;52.566;13.346;2023-04-01T13:42:25;22.20;47.60
34776;DHT22;20989;52.566;13.346;2023-04-01T14:16:00;22.20;47.50
34776;DHT22;20989;52.566;13.346;2023-04-01T14:22:51;22.30;47.40
34776;DHT22;20989;52.566;13.346;2023-04-01T14:43:53;22.10;47.30
34776;DHT22;20989;52.566;13.346;2023-04-01T14:50:45;22.30;47.10
34776;DHT22;20989;52.566;13.346;2023-04-01T14:54:09;22.30;46.90
34776;DHT22;20989;52.566;13.346;2023-04-01T14:57:20;22.30;46.90
34776;DHT22;20989;52.566;13.346;2023-04-01T15:00:24;22.30;47.20
34776;DHT22;20989;52.566;13.346;2023-04-01T15:13:48;22.40;46.90
34776;DHT22;20989;52.566;13.346;2023-04-01T15:23:58;22.30;47.20
34776;DHT22;20989;52.566;13.346;2023-04-01T15:27:31;22.30;47.20
34776;DHT22;20989;52.566;13.346;2023-04-01T15:30:49;22.30;47.10
34776;DHT22;20989;52.566;13.346;2023-04-01T15:34:37;22.40;47.40
34776;DHT22;20989;52.566;13.346;2023-04-01T15:37:57;22.30;47.30
34776;DHT22;20989;52.566;13.346;2023-04-01T15:45:08;22.30;47.30
34776;DHT22;20989;52.566;13.346;2023-04-01T15:48:20;22.30;47.30
34776;DHT22;20989;52.566;13.346;2023-04-01T16:04:55;22.30;47.60
34776;DHT22;20989;52.566;13.346;2023-04-01T16:15:21;22.30;47.60
34776;DHT22;20989;52.566;13.346;2023-04-01T16:22:00;22.30;48.10
34776;DHT22;20989;52.566;13.346;2023-04-01T16:25:44;22.30;47.90
34776;DHT22;20989;52.566;13.346;2023-04-01T16:29:03;22.30;47.90
34776;DHT22;20989;52.566;13.346;2023-04-01T16:32:29;22.30;47.80
34776;DHT22;20989;52.566;13.346;2023-04-01T16:35:52;22.30;47.80
34776;DHT22;20989;52.566;13.346;2023-04-01T16:39:15;22.30;47.60
34776;DHT22;20989;52.566;13.346;2023-04-01T16:42:56;22.30;47.70
34776;DHT22;20989;52.566;13.346;2023-04-01T16:46:28;22.20;47.60
34776;DHT22;20989;52.566;13.346;2023-04-01T16:49:35;22.20;47.90
34776;DHT22;20989;52.566;13.346;2023-04-01T16:53:02;22.10;48.10
34776;DHT22;20989;52.566;13.346;2023-04-01T16:56:25;22.10;47.70
34776;DHT22;20989;52.566;13.346;2023-04-01T16:59:38;22.00;47.80
34776;DHT22;20989;52.566;13.346;2023-04-01T17:03:12;21.90;47.10
34776;DHT22;20989;52.566;13.346;2023-04-01T17:16:54;22.10;46.80
34776;DHT22;20989;52.566;13.346;2023-04-01T17:20:11;22.20;46.90
34776;DHT22;20989;52.566;13.346;2023-04-01T17:30:33;22.20;47.00
34776;DHT22;20989;52.566;13.346;2023-04-01T17:34:42;22.30;47.00
34776;DHT22;20989;52.566;13.346;2023-04-01T17:37:40;22.30;47.10
34776;DHT22;20989;52.566;13.346;2023-04-01T17:47:34;22.20;47.40
34776;DHT22;20989;52.566;13.346;2023-04-01T17:51:05;22.20;47.40
34776;DHT22;20989;52.566;13.346;2023-04-01T17:54:30;22.20;47.40
34776;DHT22;20989;52.566;13.346;2023-04-01T18:01:09;22.20;47.20
34776;DHT22;20989;52.566;13.346;2023-04-01T18:07:52;22.20;47.30
34776;DHT22;20989;52.566;13.346;2023-04-01T18:14:39;22.20;47.60
34776;DHT22;20989;52.566;13.346;2023-04-01T18:21:27;22.00;46.70
34776;DHT22;20989;52.566;13.346;2023-04-01T18:24:33;21.90;46.90
34776;DHT22;20989;52.566;13.346;2023-04-01T18:27:43;21.90;46.70
34776;DHT22;20989;52.566;13.346;2023-04-01T18:37:31;21.70;46.70
34776;DHT22;20989;52.566;13.346;2023-04-01T18:44:38;21.70;46.90
34776;DHT22;20989;52.566;13.346;2023-04-01T18:48:03;21.70;46.80
34776;DHT22;20989;52.566;13.346;2023-04-01T18:51:14;21.60;46.80
34776;DHT22;20989;52.566;13.346;2023-04-01T18:54:30;21.60;46.70
34776;DHT22;20989;52.566;13.346;2023-04-01T18:58:21;21.50;46.40
34776;DHT22;20989;52.566;13.346;2023-04-01T19:01:47;21.50;46.50
34776;DHT22;20989;52.566;13.346;2023-04-01T19:04:52;21.50;46.40
34776;DHT22;20989;52.566;13.346;2023-04-01T19:08:31;21.50;46.50
34776;DHT22;20989;52.566;13.346;2023-04-01T19:21:44;21.50;46.50
34776;DHT22;20989;52.566;13.346;2023-04-01T19:28:53;21.50;46.30
34776;DHT22;20989;52.566;13.346;2023-04-01T19:38:43;21.40;46.20
34776;DHT22;20989;52.566;13.346;2023-04-01T19:42:02;21.40;46.10
34776;DHT22;20989;52.566;13.346;2023-04-01T20:15:34;21.30;45.90
34776;DHT22;20989;52.566;13.346;2023-04-01T20:18:48;21.20;45.70
34776;DHT22;20989;52.566;13.346;2023-04-01T20:21:59;21.20;45.80
34776;DHT22;20989;52.566;13.346;2023-04-01T20:25:16;21.20;45.60
34776;DHT22;20989;52.566;13.346;2023-04-01T20:34:36;21.20;45.70
34776;DHT22;20989;52.566;13.346;2023-04-01T20:37:53;21.20;45.80
34776;DHT22;20989;52.566;13.346;2023-04-01T20:41:40;21.20;45.80
34776;DHT22;20989;52.566;13.346;2023-04-01T20:44:54;21.10;45.60
34776;DHT22;20989;52.566;13.346;2023-04-01T20:48:44;21.10;45.50
34776;DHT22;20989;52.566;13.346;2023-04-01T20:51:38;21.20;45.60
34776;DHT22;20989;52.566;13.346;2023-04-01T20:58:01;21.20;45.80
34776;DHT22;20989;52.566;13.346;2023-04-01T21:01:15;21.20;45.60
34776;DHT22;20989;52.566;13.346;2023-04-01T21:07:46;21.10;45.50
34776;DHT22;20989;52.566;13.346;2023-04-01T21:18:09;21.10;45.70
34776;DHT22;20989;52.566;13.346;2023-04-01T21:28:48;21.10;45.60
34776;DHT22;20989;52.566;13.346;2023-04-01T21:35:31;21.10;45.60
34776;DHT22;20989;52.566;13.346;2023-04-01T21:59:04;21.00;45.40
34776;DHT22;20989;52.566;13.346;2023-04-01T22:12:14;21.00;45.20
34776;DHT22;20989;52.566;13.346;2023-04-01T22:18:49;21.00;45.30
34776;DHT22;20989;52.566;13.346;2023-04-01T22:22:02;21.00;45.50
34776;DHT22;20989;52.566;13.346;2023-04-01T22:28:21;21.00;45.30
34776;DHT22;20989;52.566;13.346;2023-04-01T22:31:32;20.90;46.00
34776;DHT22;20989;52.566;13.346;2023-04-01T22:34:43;21.00;45.60
34776;DHT22;20989;52.566;13.346;2023-04-01T22:45:05;21.00;45.60
34776;DHT22;20989;52.566;13.346;2023-04-01T22:51:42;20.90;45.30
34776;DHT22;20989;52.566;13.346;2023-04-01T22:54:58;20.90;45.80
34776;DHT22;20989;52.566;13.346;2023-04-01T22:58:04;20.90;45.40
34776;DHT22;20989;52.566;13.346;2023-04-01T23:01:15;20.90;45.60
34776;DHT22;20989;52.566;13.346;2023-04-01T23:04:20;20.90;45.80
34776;DHT22;20989;52.566;13.346;2023-04-01T23:07:45;20.90;45.30
34776;DHT22;20989;52.566;13.346;2023-04-01T23:10:56;20.90;45.50
34776;DHT22;20989;52.566;13.346;2023-04-01T23:17:49;20.90;45.50
34776;DHT22;20989;52.566;13.346;2023-04-01T23:21:09;20.90;45.40
34776;DHT22;20989;52.566;13.346;2023-04-01T23:24:30;20.90;45.60
34776;DHT22;20989;52.566;13.346;2023-04-01T23:31:42;20.90;45.50
34776;DHT22;20989;52.566;13.346;2023-04-01T23:34:53;20.90;45.30
34776;DHT22;20989;52.566;13.346;2023-04-01T23:37:55;20.90;45.30
34776;DHT22;20989;52.566;13.346;2023-04-01T23:40:56;20.90;45.60
34776;DHT22;20989;52.566;13.346;2023-04-01T23:44:09;20.90;45.50
34776;DHT22;20989;52.566;13.346;2023-04-01T23:50:27;20.90;45.20
34776;DHT22;20989;52.566;13.346;2023-04-01T23:53:32;20.90;45.60
34776;DHT22;20989;52.566;13.346;2023-04-01T23:56:46;20.80;45.40
